Springville, UT (84663)

10:19 PM MDT on August 28, 2016 (GMT -0600)
Round Peak Base | | Change Station

Elev 4662 ft 40.17 °N, 111.59 °W | Updated 10 seconds ago

Clear
Clear
71.6 °F
Feels Like 76 °F
N
0.0
Wind Variable Wind from North
Gusts 0.0 mph

Today
High -- | Low -- °F
--% Chance of Precip.
Yesterday
High -- | Low -- °F
Precip. -- in
Pressure 30.18 in
Visibility 10.0 miles
Clouds Clear
Heat Index 76 °F
Dew Point 40 °F
Humidity 32%
Rainfall 0.00 in
Snow Depth Not available.
6:50 AM 8:03 PM
Waning Crescent, 11% visible
METAR KPVU 290415Z AUTO 00000KT 10SM CLR 20/08 A3018 RMK AO1
Pressure 30.18 in
Visibility 10.0 miles
Clouds Clear
Heat Index 76 °F
Dew Point 40 °F
Humidity 32%
Rainfall 0.00 in
Snow Depth Not available.
6:50 AM 8:03 PM
Waning Crescent, 11% visible
METAR KPVU 290415Z AUTO 00000KT 10SM CLR 20/08 A3018 RMK AO1

10-Day Weather Forecast

Almanac

Astronomy

Aug. 28, 2016 Rise Set
Actual Time
Civil Twilight
Nautical Twilight
Astronomical Twilight
Moon
Length of Visible Light
Length of Day
Tomorrow will be .
, % of the Moon is Illuminated

Today's Extremes

State Highs State Lows

Community

WunderPhotos

Upload Photos

1,935,793 photos uploaded!

WunderBlog® & News

Nearby

Air Quality

  Air Quality AQ Index Pollutant
Not available.

Snow Depth

Station Depth Elevation

Earthquake Activity

City Distance Mag. Time & Date
Minimum magnitude displayed is 2.5.

Coastal Water Temperatures

Place Temperature

Stations

Nearby Weather Stations

Station Location Temp. Windchill Dew Point Humidity Wind Precip. Elev Updated Type
                   

Watches & Warnings

There are currently no watches in effect.